Time;durP1;ratioP1;P1;durP2;ratioP2;P2;SDS_P1;SDS_P2;PMS_P1;PMS_P2;Temp;Humidity;BMP_temperature;BMP_pressure;BME280_temperature;BME280_humidity;BME280_pressure;Samples;Min_cycle;Max_cycle;Signal;HPM_P1;HPM_P2
2022/09/22 00:00:59;;;;;;;;;4.67;4.67;;;;;17.12;52.96;98969.25;4973099;28;102202;-92
2022/09/22 00:03:37;;;;;;;;;6.00;6.00;;;;;17.22;53.13;98996.84;4972479;28;102526;-92
2022/09/22 00:06:14;;;;;;;;;6.33;5.00;;;;;17.15;52.77;98986.03;4976857;28;102280;-92
2022/09/22 00:08:43;;;;;;;;;7.00;5.00;;;;;17.22;53.49;98994.94;4975161;28;102176;-92
2022/09/22 00:11:15;;;;;;;;;4.00;4.00;;;;;17.17;52.94;98992.06;4971148;28;103319;-91
2022/09/22 00:13:51;;;;;;;;;6.00;6.00;;;;;17.13;52.79;98977.22;4972811;28;104434;-92
2022/09/22 00:16:23;;;;;;;;;5.00;5.00;;;;;17.15;53.19;98986.03;4964532;28;102162;-92
2022/09/22 00:18:50;;;;;;;;;6.33;5.00;;;;;17.20;53.63;98993.53;4967050;28;102083;-91
2022/09/22 00:21:18;;;;;;;;;6.00;5.67;;;;;17.21;53.46;98990.53;4976701;28;102414;-92
2022/09/22 00:23:46;;;;;;;;;4.00;4.00;;;;;17.17;53.10;98993.97;4966646;28;108107;-91
2022/09/22 00:26:15;;;;;;;;;7.67;5.00;;;;;17.21;53.30;98995.16;4968247;28;102144;-92
2022/09/22 00:28:44;;;;;;;;;6.33;5.00;;;;;17.10;52.77;98979.59;4963906;28;102026;-91
2022/09/22 00:31:13;;;;;;;;;5.00;4.33;;;;;17.17;53.67;98988.50;4950779;28;102278;-91
2022/09/22 00:33:41;;;;;;;;;7.00;5.33;;;;;17.20;53.95;98991.59;4972254;28;102285;-92
2022/09/22 00:36:08;;;;;;;;;6.00;6.00;;;;;17.10;53.65;98982.31;4968443;28;101904;-91
2022/09/22 00:38:38;;;;;;;;;5.67;5.00;;;;;17.14;53.37;98983.53;4948326;28;101852;-92
2022/09/22 00:41:09;;;;;;;;;5.00;4.33;;;;;17.19;52.70;99002.78;4964603;28;102115;-92
2022/09/22 00:43:37;;;;;;;;;5.00;4.33;;;;;17.10;53.72;98993.25;4978750;28;103644;-91
2022/09/22 00:46:08;;;;;;;;;5.67;4.00;;;;;17.18;53.12;99006.59;4969951;28;103249;-91
2022/09/22 00:48:38;;;;;;;;;5.67;4.67;;;;;17.12;53.24;98991.09;4966976;28;101901;-91
2022/09/22 00:51:06;;;;;;;;;8.67;6.00;;;;;17.18;53.20;98995.66;4953535;28;102044;-92
2022/09/22 00:53:33;;;;;;;;;4.67;4.00;;;;;17.08;52.96;98996.22;4968445;28;103048;-92
2022/09/22 00:56:02;;;;;;;;;6.33;5.00;;;;;17.19;52.66;98992.69;4975555;28;102286;-92
2022/09/22 00:58:34;;;;;;;;;4.00;4.00;;;;;17.06;53.01;98971.03;4971447;28;102361;-92
2022/09/22 01:01:02;;;;;;;;;4.67;4.67;;;;;17.18;52.87;99007.41;4971547;28;102184;-92
2022/09/22 01:03:29;;;;;;;;;4.00;4.00;;;;;17.13;53.24;98992.78;4964714;28;104244;-92
2022/09/22 01:06:02;;;;;;;;;7.00;6.67;;;;;17.07;53.36;98982.78;4964803;28;102071;-91
2022/09/22 01:08:38;;;;;;;;;4.67;4.33;;;;;17.05;53.66;98984.91;4973027;28;102210;-91
2022/09/22 01:11:25;;;;;;;;;4.67;4.00;;;;;17.10;52.79;98993.25;4973663;28;109349;-92
2022/09/22 01:14:31;;;;;;;;;5.00;5.00;;;;;17.15;52.57;99001.59;4955305;28;108295;-92
2022/09/22 01:17:35;;;;;;;;;7.00;6.00;;;;;17.15;53.17;98993.41;4962748;28;101948;-92
2022/09/22 01:20:44;;;;;;;;;6.33;5.67;;;;;17.14;52.74;98999.91;4965744;28;102042;-92
2022/09/22 01:23:49;;;;;;;;;3.67;3.67;;;;;17.13;53.85;99003.72;4974085;28;103056;-91
2022/09/22 01:26:29;;;;;;;;;6.00;5.00;;;;;17.12;53.55;98999.31;4976066;28;107642;-91
2022/09/22 01:29:32;;;;;;;;;4.67;4.00;;;;;17.10;53.58;98999.56;4973047;28;103162;-91
2022/09/22 01:32:23;;;;;;;;;4.00;4.00;;;;;17.08;53.84;98993.47;4979731;28;102231;-92
2022/09/22 01:34:51;;;;;;;;;5.00;4.67;;;;;17.13;52.82;98998.25;4972741;28;102117;-91
2022/09/22 01:37:24;;;;;;;;;6.67;6.00;;;;;17.13;53.48;98993.63;4976846;28;109839;-92
2022/09/22 01:39:57;;;;;;;;;5.67;5.00;;;;;17.11;53.51;99003.13;4980449;28;101954;-92
2022/09/22 01:42:38;;;;;;;;;7.00;5.00;;;;;17.10;53.24;98987.78;4968404;28;101853;-91
2022/09/22 01:45:16;;;;;;;;;5.67;5.00;;;;;17.00;53.47;98974.69;4979148;28;102182;-92
2022/09/22 01:47:55;;;;;;;;;4.00;4.00;;;;;17.10;53.40;98987.78;4958581;28;103420;-91
2022/09/22 01:50:34;;;;;;;;;6.00;4.67;;;;;17.08;53.25;98984.44;4964582;28;105021;-91
2022/09/22 02:01:55;;;;;;;;;;;;;;;;;;;;;
2022/09/22 02:09:25;;;;;;;;;5.00;5.00;;;;;17.01;53.20;98983.72;4543849;28;102577;-86
2022/09/22 02:23:31;;;;;;;;;4.00;4.00;;;;;17.07;53.45;98971.84;5153337;21;16933509;-87
2022/09/22 03:03:17;;;;;;;;;;;;;;;;;;;;;
2022/09/22 03:46:07;;;;;;;;;;;;;;;;;;;;;
2022/09/22 04:22:24;;;;;;;;;3.67;3.67;;;;;16.98;53.60;98992.38;5673200;23;102587;-89
2022/09/22 04:27:57;;;;;;;;;4.00;4.00;;;;;16.95;52.56;98986.31;5679927;23;108435;-88
2022/09/22 04:31:26;;;;;;;;;;;;;;;;;;;;;
2022/09/22 04:34:25;;;;;;;;;;;;;;;;;;;;;
2022/09/22 04:37:03;;;;;;;;;5.00;5.00;;;;;17.01;52.29;98994.66;5870850;22;102485;-89
2022/09/22 04:39:53;;;;;;;;;4.00;4.00;;;;;16.96;52.91;98987.16;5805882;22;103482;-88
2022/09/22 04:42:42;;;;;;;;;;;;;;;;;;;;;
2022/09/22 04:45:20;;;;;;;;;5.00;5.00;;;;;17.04;52.76;98997.75;5780113;22;102215;-89
2022/09/22 04:47:48;;;;;;;;;5.00;5.00;;;;;16.99;53.49;98991.31;5723325;22;104459;-89
2022/09/22 04:50:32;;;;;;;;;5.33;5.00;;;;;16.98;53.29;98995.09;5728724;22;109994;-88
2022/09/22 04:53:27;;;;;;;;;6.00;5.00;;;;;17.02;52.48;99008.06;5718861;22;104717;-89
2022/09/22 04:56:27;;;;;;;;;5.00;5.00;;;;;16.95;52.74;98999.97;5839910;22;103913;-88
2022/09/22 04:59:12;;;;;;;;;5.00;3.67;;;;;16.97;53.17;99002.50;5776422;22;102533;-88
2022/09/22 05:01:47;;;;;;;;;5.00;4.00;;;;;16.97;52.57;99002.50;5655214;22;103419;-88
2022/09/22 05:04:33;;;;;;;;;4.00;4.00;;;;;16.95;52.86;99002.72;5793844;22;102390;-88
2022/09/22 05:07:08;;;;;;;;;5.00;4.00;;;;;16.97;52.45;98993.47;5776998;22;102569;-88
2022/09/22 05:10:09;;;;;;;;;4.67;4.67;;;;;16.94;52.18;98997.47;5746204;22;104505;-88
2022/09/22 05:12:41;;;;;;;;;5.00;4.00;;;;;16.97;52.67;98999.75;5723347;22;104789;-88
2022/09/22 05:15:33;;;;;;;;;5.00;4.00;;;;;16.97;52.36;98998.91;5830214;22;102547;-88
2022/09/22 05:18:08;;;;;;;;;5.00;5.00;;;;;16.95;52.62;98985.47;5828060;22;104003;-88
2022/09/22 05:20:45;;;;;;;;;4.67;4.33;;;;;16.96;52.67;98987.16;5748555;22;104755;-88
2022/09/22 05:23:20;;;;;;;;;5.00;5.00;;;;;16.94;52.87;98984.66;5793981;22;104595;-88
2022/09/22 05:26:05;;;;;;;;;4.00;4.00;;;;;16.94;53.07;98992.84;5748757;22;103660;-88
2022/09/22 05:28:39;;;;;;;;;6.00;5.33;;;;;17.00;53.14;99001.19;5723269;22;103090;-89
2022/09/22 05:31:39;;;;;;;;;;;;;;;;;;;;;
2022/09/22 05:34:33;;;;;;;;;5.00;4.00;;;;;17.02;52.71;99013.53;5817288;22;107724;-88
2022/09/22 05:37:19;;;;;;;;;5.00;5.00;;;;;16.99;52.43;99007.69;5670512;22;102491;-88
2022/09/22 05:39:50;;;;;;;;;5.00;4.00;;;;;16.98;53.06;99006.03;5712284;22;102355;-88
2022/09/22 05:42:22;;;;;;;;;4.00;4.00;;;;;16.93;52.42;98993.09;5749923;22;102597;-88
2022/09/22 05:45:16;;;;;;;;;5.67;5.00;;;;;16.97;52.73;99007.13;5779563;22;109961;-88
2022/09/22 05:47:56;;;;;;;;;4.67;4.00;;;;;16.98;52.81;99009.59;5789454;22;102513;-88
2022/09/22 05:57:55;;;;;;;;;5.00;5.00;;;;;16.94;52.52;99008.41;5528300;23;108277;-88
2022/09/22 06:01:05;;;;;;;;;4.50;4.50;;;;;17.00;52.18;99025.75;5204161;23;5018806;-89
2022/09/22 06:15:34;;;;;;;;;;;;;;;;;;;;;
2022/09/22 06:50:21;;;;;;;;;;;;;;;;;;;;;
2022/09/22 06:53:24;;;;;;;;;4.00;4.00;;;;;16.96;52.43;99047.25;5811921;22;103862;-88
2022/09/22 06:57:18;;;;;;;;;3.67;3.00;;;;;17.00;52.51;99042.16;5657208;23;497096;-89
2022/09/22 07:03:45;;;;;;;;;4.00;4.00;;;;;17.07;53.13;99059.28;5647098;23;104549;-89
2022/09/22 07:07:08;;;;;;;;;;;;;;;;;;;;;
2022/09/22 07:10:41;;;;;;;;;;;;;;;;;;;;;
2022/09/22 07:32:26;;;;;;;;;4.67;4.00;;;;;17.07;52.20;99053.81;4526639;29;102639;-86
2022/09/22 07:36:07;;;;;;;;;4.00;4.00;;;;;17.09;52.75;99057.16;4519959;28;104184;-86
2022/09/22 07:39:30;;;;;;;;;4.67;4.00;;;;;17.07;52.53;99051.09;4535874;29;107800;-87
2022/09/22 07:42:29;;;;;;;;;5.00;3.00;;;;;17.09;52.38;99040.75;4538716;28;1388020;-86
2022/09/22 07:45:35;;;;;;;;;;;;;;;;;;;;;
2022/09/22 07:52:08;;;;;;;;;2.67;2.67;;;;;17.14;52.48;99043.63;4576576;28;107992;-86
2022/09/22 07:54:49;;;;;;;;;5.67;4.67;;;;;17.16;52.17;99041.50;4631311;28;103487;-86
2022/09/22 07:57:56;;;;;;;;;4.00;4.00;;;;;17.16;52.41;99045.06;4555914;28;102779;-87
2022/09/22 08:00:36;;;;;;;;;;;;;;;;;;;;;
2022/09/22 08:03:36;;;;;;;;;4.00;3.00;;;;;17.22;51.86;99056.97;4674213;28;108876;-86
2022/09/22 08:06:36;;;;;;;;;2.00;2.00;;;;;17.22;52.74;99048.78;4586034;28;102458;-86
2022/09/22 08:09:32;;;;;;;;;4.00;4.00;;;;;17.15;52.30;99045.31;4571218;28;103491;-86
2022/09/22 08:16:09;;;;;;;;;2.33;2.00;;;;;17.16;52.37;99052.41;4629724;28;104343;-86
2022/09/22 08:19:32;;;;;;;;;4.00;4.00;;;;;17.23;51.67;99064.94;4644937;28;103477;-86
2022/09/22 08:22:19;;;;;;;;;3.00;3.00;;;;;17.20;52.40;99061.84;4672791;28;102455;-86
2022/09/22 08:25:49;;;;;;;;;4.33;3.00;;;;;17.17;52.67;99054.09;4644087;28;102708;-86
2022/09/22 08:29:03;;;;;;;;;3.00;2.00;;;;;17.17;52.35;99048.63;4547818;28;104100;-87
2022/09/22 08:31:51;;;;;;;;;2.00;2.00;;;;;17.21;51.99;99060.75;4581103;28;102292;-87
2022/09/22 08:34:57;;;;;;;;;;;;;;;;;;;;;
2022/09/22 08:38:05;;;;;;;;;3.00;3.00;;;;;17.19;52.77;99058.28;4557820;28;103320;-87
2022/09/22 08:41:28;;;;;;;;;;;;;;;;;;;;;
2022/09/22 08:52:20;;;;;;;;;3.00;3.00;;;;;17.18;52.91;99061.22;4474747;29;103160;-86
2022/09/22 08:54:58;;;;;;;;;2.67;2.67;;;;;17.22;52.21;99056.97;4002028;29;6782194;-87
2022/09/22 08:57:54;;;;;;;;;2.67;1.33;;;;;17.25;52.08;99071.00;4562423;28;110041;-87
2022/09/22 09:01:30;;;;;;;;;2.67;2.67;;;;;17.19;52.52;99054.72;4540555;28;103954;-86
2022/09/22 09:04:54;;;;;;;;;5.00;3.00;;;;;17.24;52.06;99063.06;4573358;28;103060;-87
2022/09/22 09:12:34;;;;;;;;;3.00;3.00;;;;;17.27;51.97;99060.69;4631730;29;107159;-87
2022/09/22 09:16:22;;;;;;;;;;;;;;;;;;;;;
2022/09/22 09:46:05;;;;;;;;;2.00;1.67;;;;;17.25;52.65;99035.47;4640838;28;103493;-86
2022/09/22 09:53:21;;;;;;;;;2.33;2.33;;;;;17.34;51.99;99050.47;4686889;27;103824;-86
2022/09/22 10:01:49;;;;;;;;;;;;;;;;;;;;;
2022/09/22 10:05:16;;;;;;;;;;;;;;;;;;;;;
2022/09/22 10:40:58;;;;;;;;;2.67;2.67;;;;;17.38;52.18;99050.84;5495383;23;7613123;-88
2022/09/22 13:05:55;;;;;;;;;;;;;;;;;;;;;
2022/09/22 14:42:36;;;;;;;;;1.67;1.00;;;;;17.83;52.90;98919.91;5487161;24;102605;-81
2022/09/22 14:45:18;;;;;;;;;5.67;5.67;;;;;17.95;52.45;98934.38;5490500;23;103398;-83
2022/09/22 14:48:30;;;;;;;;;13.33;10.00;;;;;18.01;54.12;98940.81;5182936;24;4392758;-83
2022/09/22 14:51:11;;;;;;;;;17.20;14.80;;;;;18.03;54.63;98933.16;4904402;24;5438640;-83
2022/09/22 14:54:30;;;;;;;;;19.00;18.00;;;;;18.12;55.11;98927.09;5274513;24;3632419;-83
2022/09/22 15:08:26;;;;;;;;;27.00;24.00;;;;;18.28;54.70;98931.78;3860427;27;25803572;-81
2022/09/22 15:33:13;;;;;;;;;23.50;22.00;;;;;18.63;58.24;98923.50;6123233;22;102335;-83
2022/09/22 15:39:55;;;;;;;;;24.75;22.00;;;;;-143.91;100.00;62633.25;5885716;23;102691;-86
2022/09/22 18:13:50;;;;;;;;;10.25;10.25;;;;;21.07;51.26;98978.16;5030048;27;103425;-61
2022/09/22 18:16:21;;;;;;;;;16.25;15.00;;;;;20.64;52.61;98978.22;4988847;28;102475;-61
2022/09/22 18:18:48;;;;;;;;;14.75;14.00;;;;;20.30;53.42;98977.53;5010112;27;109176;-61
2022/09/22 18:21:15;;;;;;;;;15.25;14.00;;;;;20.02;54.04;98981.22;5012506;27;102504;-61
2022/09/22 18:23:42;;;;;;;;;17.50;15.50;;;;;19.84;54.23;98981.50;5004035;27;102299;-60
2022/09/22 18:26:11;;;;;;;;;15.75;15.25;;;;;19.69;54.62;98984.00;4997350;27;102315;-61
2022/09/22 18:28:39;;;;;;;;;14.75;14.50;;;;;19.59;55.03;98987.41;4994370;27;110727;-60
2022/09/22 18:31:06;;;;;;;;;16.50;15.25;;;;;19.51;55.47;98985.94;4987881;28;102633;-61
2022/09/22 18:33:35;;;;;;;;;17.33;14.33;;;;;19.45;55.23;98992.41;4973710;28;102457;-61
2022/09/22 18:36:02;;;;;;;;;14.25;12.75;;;;;19.42;55.35;99000.25;5011403;27;103316;-61
2022/09/22 18:38:31;;;;;;;;;14.50;14.50;;;;;19.39;55.28;98996.13;5008128;27;104252;-59
2022/09/22 18:40:59;;;;;;;;;18.00;17.00;;;;;19.36;55.42;99004.03;4997558;27;102556;-60
2022/09/22 18:43:26;;;;;;;;;15.67;14.33;;;;;19.34;55.29;98990.53;5001093;27;102624;-60
2022/09/22 18:45:53;;;;;;;;;15.33;15.00;;;;;19.34;55.31;99006.16;4983255;27;102551;-62
2022/09/22 18:48:20;;;;;;;;;15.00;13.33;;;;;19.33;55.11;98999.84;4998652;27;104269;-62
2022/09/22 18:50:48;;;;;;;;;13.00;12.67;;;;;19.34;55.39;98996.03;4992373;28;102132;-59
2022/09/22 18:53:16;;;;;;;;;15.33;14.00;;;;;19.34;55.15;98997.94;4996021;27;102486;-58
2022/09/22 18:55:43;;;;;;;;;14.33;13.33;;;;;19.33;55.23;98994.38;5019751;27;102400;-59
2022/09/22 18:58:11;;;;;;;;;16.00;14.33;;;;;19.32;55.18;98995.44;4993394;27;103229;-59
2022/09/22 19:00:38;;;;;;;;;17.67;16.67;;;;;19.32;54.77;99000.91;4990192;27;102544;-58
2022/09/22 19:03:05;;;;;;;;;14.00;11.33;;;;;19.32;55.01;98991.84;5011462;27;102335;-58
2022/09/22 19:05:32;;;;;;;;;17.00;13.67;;;;;19.30;54.85;98989.38;4999734;27;102478;-59
2022/09/22 19:07:59;;;;;;;;;17.33;12.67;;;;;19.30;54.87;98985.81;4986611;27;104117;-59
2022/09/22 19:10:26;;;;;;;;;17.67;15.00;;;;;19.29;54.83;98992.38;5006754;27;102587;-59
2022/09/22 19:12:54;;;;;;;;;16.67;14.67;;;;;19.28;54.64;98990.69;5000197;27;102438;-59
2022/09/22 19:15:21;;;;;;;;;16.00;15.67;;;;;19.26;54.68;98982.75;5002272;27;102687;-58
2022/09/22 19:17:49;;;;;;;;;12.33;10.00;;;;;19.26;54.48;98984.66;4988064;28;108835;-58
2022/09/22 19:20:19;;;;;;;;;15.00;15.00;;;;;19.25;54.76;98991.19;4996616;28;102178;-59
2022/09/22 19:22:48;;;;;;;;;17.00;16.00;;;;;19.23;54.50;98990.63;5005678;27;102582;-58
2022/09/22 19:25:15;;;;;;;;;15.00;14.67;;;;;19.23;54.42;98993.38;4982274;27;102321;-58
2022/09/22 19:27:43;;;;;;;;;16.00;15.67;;;;;19.22;54.64;98994.44;4981452;28;103833;-58
2022/09/22 19:30:12;;;;;;;;;13.00;12.00;;;;;19.21;54.52;98990.03;4986068;27;102236;-58
2022/09/22 19:32:39;;;;;;;;;15.00;15.00;;;;;19.20;54.62;98994.69;4985744;28;103546;-58
2022/09/22 19:35:06;;;;;;;;;27.75;24.25;;;;;19.17;52.91;98986.97;5001366;27;102633;-59
2022/09/22 19:37:33;;;;;;;;;28.00;25.25;;;;;19.13;53.45;98991.28;4977179;28;104215;-58
2022/09/22 19:40:00;;;;;;;;;33.50;29.00;;;;;19.09;53.67;98993.66;4988060;28;102313;-58
2022/09/22 19:42:27;;;;;;;;;23.00;21.75;;;;;19.07;53.92;98993.09;4986861;27;103670;-58
2022/09/22 19:44:55;;;;;;;;;22.50;20.25;;;;;19.04;54.00;98995.50;4975170;28;102599;-58
2022/09/22 19:47:22;;;;;;;;;26.33;22.67;;;;;19.04;54.08;98992.75;4991619;28;103385;-58
2022/09/22 19:49:51;;;;;;;;;21.00;20.50;;;;;19.02;53.98;98994.91;4984834;28;103041;-58
2022/09/22 19:52:18;;;;;;;;;22.67;19.67;;;;;19.02;54.28;98998.47;5002946;28;102205;-58
2022/09/22 19:54:46;;;;;;;;;20.33;18.00;;;;;19.01;54.27;98990.47;5017720;27;102289;-58
2022/09/22 19:57:13;;;;;;;;;21.50;19.50;;;;;19.01;54.18;98994.06;4980899;28;103478;-58
2022/09/22 19:59:40;;;;;;;;;20.67;20.33;;;;;19.00;54.21;99000.63;4985111;27;101940;-58
2022/09/22 20:02:13;;;;;;;;;19.33;18.00;;;;;18.99;54.16;98998.13;4986870;28;102421;-58
2022/09/22 20:04:40;;;;;;;;;20.25;19.75;;;;;18.98;54.25;98996.47;4980401;28;102619;-58
2022/09/22 20:07:09;;;;;;;;;16.00;15.67;;;;;18.97;54.31;98989.31;4981928;28;104160;-58
2022/09/22 20:09:37;;;;;;;;;18.67;18.00;;;;;18.97;54.12;98989.31;4983222;28;102592;-58
2022/09/22 20:12:04;;;;;;;;;19.67;18.00;;;;;18.95;53.95;98983.25;4964433;28;102539;-57
2022/09/22 20:14:31;;;;;;;;;20.33;18.00;;;;;18.94;54.16;98981.59;4982854;28;102456;-58
2022/09/22 20:17:06;;;;;;;;;17.67;16.00;;;;;18.93;54.26;98982.66;4956951;28;104765;-58
2022/09/22 20:19:37;;;;;;;;;20.00;16.67;;;;;18.91;54.00;98982.91;4979797;28;102706;-58
2022/09/22 20:22:21;;;;;;;;;21.75;20.25;;;;;18.90;54.02;98985.91;4984487;28;103677;-58
2022/09/22 20:24:53;;;;;;;;;10.50;9.00;;;;;18.89;54.25;98984.25;4975281;28;102559;-58
2022/09/22 20:27:25;;;;;;;;;10.67;10.33;;;;;18.87;54.15;98987.22;4988179;28;108780;-58
2022/09/22 20:29:52;;;;;;;;;20.00;18.67;;;;;18.86;54.37;98987.47;4983937;27;101939;-58
2022/09/22 20:32:24;;;;;;;;;20.33;19.67;;;;;18.84;54.38;98992.34;4981485;27;102558;-58
2022/09/22 20:34:52;;;;;;;;;21.67;20.00;;;;;18.84;54.12;98986.88;4974169;28;102442;-58
2022/09/22 20:37:20;;;;;;;;;20.75;19.00;;;;;18.82;54.15;98991.78;4978047;27;104315;-58
2022/09/22 20:39:47;;;;;;;;;18.33;17.67;;;;;18.80;53.77;98985.69;4978106;28;102331;-58
2022/09/22 20:42:14;;;;;;;;;16.50;14.75;;;;;18.78;53.97;98979.66;4977041;28;102436;-58
2022/09/22 20:44:41;;;;;;;;;17.33;16.67;;;;;18.78;54.31;98985.13;4989251;27;102465;-58
2022/09/22 20:47:16;;;;;;;;;19.33;17.33;;;;;18.76;54.44;98993.59;4971609;28;104313;-58
2022/09/22 20:49:43;;;;;;;;;20.67;17.67;;;;;18.75;54.24;98982.88;5002958;27;103646;-58
2022/09/22 20:52:18;;;;;;;;;19.00;17.00;;;;;18.75;54.10;98991.91;4971900;28;102716;-58
2022/09/22 20:54:46;;;;;;;;;21.00;18.33;;;;;18.76;54.78;98981.78;4964186;28;102283;-56
2022/09/22 20:57:13;;;;;;;;;18.67;16.33;;;;;18.77;54.74;98977.97;4977162;28;103939;-57
2022/09/22 20:59:41;;;;;;;;;21.00;18.00;;;;;18.77;54.95;98983.47;4977805;28;103230;-57
2022/09/22 21:02:09;;;;;;;;;16.67;15.00;;;;;18.77;55.55;98989.78;4985622;28;102522;-57
2022/09/22 21:04:36;;;;;;;;;18.33;16.67;;;;;18.76;54.78;98984.53;4984373;28;102937;-57
2022/09/22 21:07:03;;;;;;;;;20.67;18.00;;;;;18.75;55.95;98980.97;4982324;28;104281;-57
2022/09/22 21:12:15;;;;;;;;;20.25;18.25;;;;;18.73;56.69;98983.94;4987956;28;102496;-57
2022/09/22 21:14:44;;;;;;;;;19.25;18.50;;;;;18.70;56.76;98984.44;4985740;27;103396;-57
2022/09/22 21:17:12;;;;;;;;;20.00;17.75;;;;;18.70;56.63;98987.16;4992984;27;104135;-57
2022/09/22 21:19:39;;;;;;;;;20.50;19.00;;;;;18.68;56.59;98978.38;4972389;28;102764;-57
2022/09/22 21:22:06;;;;;;;;;20.50;20.50;;;;;18.66;56.24;98972.31;4980803;28;102620;-57
2022/09/22 21:24:33;;;;;;;;;17.33;15.67;;;;;18.65;56.36;98978.84;4984121;27;102909;-57
2022/09/22 21:27:00;;;;;;;;;21.67;21.00;;;;;18.65;56.49;98978.84;4976686;28;103668;-57
2022/09/22 21:29:28;;;;;;;;;23.00;20.50;;;;;18.64;56.36;98981.84;4977276;28;102605;-57
2022/09/22 21:31:56;;;;;;;;;20.67;19.00;;;;;18.63;56.82;98978.28;4981364;28;102059;-57
2022/09/22 21:34:23;;;;;;;;;23.00;19.67;;;;;18.62;56.66;98976.59;4971887;28;102880;-57
2022/09/22 21:36:50;;;;;;;;;20.00;18.00;;;;;18.61;56.95;98974.94;4992917;28;108913;-57
2022/09/22 21:39:18;;;;;;;;;19.75;18.75;;;;;18.59;56.50;98973.53;4970226;28;103801;-57
2022/09/22 21:41:45;;;;;;;;;20.75;19.25;;;;;18.58;57.25;98975.44;4991571;28;102498;-57
2022/09/22 21:44:12;;;;;;;;;22.00;21.25;;;;;18.57;56.98;98981.16;5000702;27;103093;-57
2022/09/22 21:46:40;;;;;;;;;19.50;17.75;;;;;18.55;57.30;98973.16;5001986;27;104070;-57
2022/09/22 21:49:07;;;;;;;;;22.00;19.25;;;;;18.55;56.94;98973.16;4986841;28;102469;-57
2022/09/22 21:51:38;;;;;;;;;26.00;20.50;;;;;18.53;57.00;98971.75;4993531;28;103091;-57
2022/09/22 21:54:06;;;;;;;;;21.50;20.75;;;;;18.53;57.59;98979.97;4976924;28;102497;-57
2022/09/22 21:56:33;;;;;;;;;19.25;18.50;;;;;18.51;57.57;98974.69;4964134;28;104365;-57
2022/09/22 21:59:02;;;;;;;;;21.00;19.75;;;;;18.51;57.57;98973.84;4948210;28;102425;-57
2022/09/22 22:01:47;;;;;;;;;22.75;20.75;;;;;18.51;57.25;98973.84;4982268;28;103565;-57
2022/09/22 22:04:16;;;;;;;;;19.00;19.00;;;;;18.50;57.38;98977.69;4985013;28;102005;-57
2022/09/22 22:06:44;;;;;;;;;24.00;21.00;;;;;18.49;57.67;98971.38;4977961;28;104107;-57
2022/09/22 22:09:16;;;;;;;;;19.33;18.33;;;;;18.48;57.84;98972.44;4983165;28;103060;-57
2022/09/22 22:11:48;;;;;;;;;21.67;21.33;;;;;18.47;57.40;98973.50;4981530;28;102407;-57
2022/09/22 22:14:18;;;;;;;;;25.75;21.25;;;;;18.47;57.84;98964.47;4982195;28;102211;-57
2022/09/22 22:16:46;;;;;;;;;19.33;18.00;;;;;18.45;57.95;98959.25;4986772;28;103553;-57
2022/09/22 22:19:16;;;;;;;;;18.75;18.25;;;;;18.45;57.94;98972.09;4993097;27;102790;-57
2022/09/22 22:21:43;;;;;;;;;24.50;18.75;;;;;18.44;57.68;98967.69;4997051;28;102225;-57
2022/09/22 22:26:48;;;;;;;;;22.50;20.75;;;;;18.43;58.21;98960.56;4984307;27;105303;-56
2022/09/22 22:29:19;;;;;;;;;21.33;20.33;;;;;18.41;58.32;98960.81;4988105;28;102197;-57
2022/09/22 22:31:50;;;;;;;;;18.25;17.50;;;;;18.40;58.02;98964.63;4987037;28;102133;-57
2022/09/22 22:34:19;;;;;;;;;17.25;16.75;;;;;18.40;58.54;98956.41;4988898;28;102557;-57
2022/09/22 22:36:47;;;;;;;;;19.75;16.50;;;;;18.38;58.47;98958.53;4956910;28;104083;-57
2022/09/22 22:39:14;;;;;;;;;23.50;21.00;;;;;18.38;58.53;98954.97;4976661;28;102972;-57
2022/09/22 22:41:41;;;;;;;;;23.75;20.25;;;;;18.36;58.22;98949.75;4976136;28;102429;-57
2022/09/22 22:44:08;;;;;;;;;23.00;20.50;;;;;18.37;58.14;98950.59;4981564;28;102235;-57
2022/09/22 22:46:36;;;;;;;;;20.00;19.00;;;;;18.36;58.49;98941.53;4972429;28;103572;-57
2022/09/22 22:49:06;;;;;;;;;17.25;17.00;;;;;18.36;58.58;98941.53;4986147;28;102656;-57
2022/09/22 22:51:34;;;;;;;;;21.00;19.75;;;;;18.36;58.23;98937.97;4971267;28;102345;-57
2022/09/22 22:54:02;;;;;;;;;19.00;17.67;;;;;18.34;58.91;98943.69;4977040;28;102199;-57
2022/09/22 22:56:29;;;;;;;;;24.75;22.75;;;;;18.34;58.48;98940.94;4970091;28;105158;-57
2022/09/22 22:58:55;;;;;;;;;18.00;17.00;;;;;18.34;58.79;98940.94;4982078;28;102761;-57
2022/09/22 23:01:24;;;;;;;;;20.50;18.75;;;;;18.34;58.93;98940.09;4980104;28;102380;-57
2022/09/22 23:03:57;;;;;;;;;19.75;19.00;;;;;18.33;59.46;98943.94;4982581;28;102693;-57
2022/09/22 23:06:28;;;;;;;;;19.50;18.50;;;;;18.31;59.29;98944.19;4985461;28;108919;-57
2022/09/22 23:08:55;;;;;;;;;19.50;19.00;;;;;18.30;59.30;98942.50;4982772;28;102510;-57
2022/09/22 23:11:27;;;;;;;;;19.00;17.00;;;;;18.29;59.31;98944.41;4981562;28;102446;-58
2022/09/22 23:13:58;;;;;;;;;20.00;19.00;;;;;18.28;59.15;98944.66;4954649;28;102737;-57
2022/09/22 23:16:26;;;;;;;;;18.00;18.00;;;;;18.28;58.99;98942.75;4971712;27;108126;-57
2022/09/22 23:18:53;;;;;;;;;20.75;19.00;;;;;18.28;59.44;98937.25;4978994;27;102995;-57
2022/09/22 23:21:20;;;;;;;;;18.33;18.00;;;;;18.28;59.21;98930.97;4955816;28;102641;-57
2022/09/22 23:23:47;;;;;;;;;22.00;18.75;;;;;18.27;59.18;98930.16;4964698;27;102183;-57
2022/09/22 23:26:15;;;;;;;;;22.25;19.25;;;;;18.27;59.56;98932.03;4980617;28;103576;-57
2022/09/22 23:28:42;;;;;;;;;16.67;16.00;;;;;18.27;59.70;98926.56;4987160;28;102512;-57
2022/09/22 23:31:11;;;;;;;;;20.00;20.00;;;;;18.26;60.00;98933.13;4976141;28;102336;-57
2022/09/22 23:33:42;;;;;;;;;20.25;18.00;;;;;18.25;59.99;98936.91;4974403;28;102567;-57
2022/09/22 23:36:17;;;;;;;;;22.75;21.25;;;;;18.25;59.64;98936.91;4966719;28;104046;-57
2022/09/22 23:38:44;;;;;;;;;19.00;18.75;;;;;18.24;60.14;98929.78;4993743;28;102964;-57
2022/09/22 23:41:11;;;;;;;;;21.25;19.00;;;;;18.22;60.30;98927.31;4980116;28;102240;-57
2022/09/22 23:43:38;;;;;;;;;17.75;17.50;;;;;18.22;60.05;98926.47;4977212;28;103833;-57
2022/09/22 23:46:06;;;;;;;;;19.75;19.50;;;;;18.20;60.05;98921.22;4978948;28;103967;-57
2022/09/22 23:48:33;;;;;;;;;19.25;17.00;;;;;18.20;60.53;98923.13;4973902;27;102224;-57
2022/09/22 23:51:00;;;;;;;;;18.50;17.50;;;;;18.20;60.20;98918.47;4975075;28;102461;-58
2022/09/22 23:53:29;;;;;;;;;18.50;17.75;;;;;18.20;59.59;98912.19;4979435;28;102686;-57
2022/09/22 23:55:56;;;;;;;;;17.75;17.75;;;;;18.19;60.07;98910.53;4991003;28;109665;-57
2022/09/22 23:58:23;;;;;;;;;17.00;17.00;;;;;18.19;60.19;98918.75;4982139;28;102511;-57
